Time;durP1;ratioP1;P1;durP2;ratioP2;P2;SDS_P1;SDS_P2;PMS_P1;PMS_P2;Temp;Humidity;BMP_temperature;BMP_pressure;BME280_temperature;BME280_humidity;BME280_pressure;Samples;Min_cycle;Max_cycle;Signal;HPM_P1;HPM_P2
2021/01/05 00:00:17;;;;;;;36.78;15.20;;;7.00;99.90;;;;;;5016619;28;20060;-63
2021/01/05 00:02:44;;;;;;;36.17;15.73;;;7.00;99.90;;;;;;5027542;28;20144;-64
2021/01/05 00:05:11;;;;;;;42.55;17.65;;;7.00;99.90;;;;;;5027017;28;20053;-64
2021/01/05 00:07:38;;;;;;;42.55;18.25;;;7.10;99.90;;;;;;5027157;28;20050;-64
2021/01/05 00:10:06;;;;;;;38.50;17.63;;;7.00;99.90;;;;;;5027820;28;20814;-64
2021/01/05 00:12:33;;;;;;;38.92;16.65;;;7.10;99.90;;;;;;5027062;28;20053;-64
2021/01/05 00:14:59;;;;;;;37.03;16.00;;;7.00;99.90;;;;;;5024280;28;20111;-63
2021/01/05 00:17:26;;;;;;;37.70;15.82;;;7.00;99.90;;;;;;5020506;28;20053;-64
2021/01/05 00:19:54;;;;;;;37.35;15.18;;;7.00;99.90;;;;;;5022092;28;20106;-64
2021/01/05 00:22:20;;;;;;;40.28;15.52;;;7.00;99.90;;;;;;5027257;28;20052;-64
2021/01/05 00:24:47;;;;;;;35.40;16.13;;;7.00;99.90;;;;;;5026457;28;20037;-64
2021/01/05 00:27:14;;;;;;;36.22;16.35;;;7.00;99.90;;;;;;5025799;28;20037;-64
2021/01/05 00:29:41;;;;;;;42.03;15.82;;;7.00;99.90;;;;;;5028452;28;20038;-64
2021/01/05 00:32:18;;;;;;;39.40;16.10;;;7.00;99.90;;;;;;5027525;28;20053;-64
2021/01/05 00:34:46;;;;;;;34.65;15.38;;;6.90;99.90;;;;;;5010384;28;20041;-64
2021/01/05 00:37:14;;;;;;;36.88;14.63;;;6.90;99.90;;;;;;5011746;28;20052;-64
2021/01/05 00:39:44;;;;;;;38.72;15.20;;;7.00;99.90;;;;;;5012310;28;20064;-64
2021/01/05 00:42:12;;;;;;;36.55;15.20;;;6.90;99.90;;;;;;5028618;28;20046;-64
2021/01/05 00:44:39;;;;;;;33.80;14.13;;;6.90;99.90;;;;;;5028938;28;20112;-64
2021/01/05 00:47:05;;;;;;;34.78;15.07;;;6.90;99.90;;;;;;5030385;28;20052;-63
2021/01/05 00:49:32;;;;;;;40.08;15.27;;;6.90;99.90;;;;;;5031081;28;20037;-63
2021/01/05 00:51:59;;;;;;;35.00;14.27;;;6.80;99.90;;;;;;5032357;28;20041;-63
2021/01/05 00:54:31;;;;;;;38.30;15.07;;;6.80;99.90;;;;;;5012433;28;20140;-63
2021/01/05 00:57:08;;;;;;;33.20;13.90;;;6.80;99.90;;;;;;5027070;28;20040;-63
2021/01/05 00:59:40;;;;;;;33.60;13.35;;;6.80;99.90;;;;;;5023359;28;20049;-63
2021/01/05 01:02:13;;;;;;;35.65;13.85;;;6.80;99.90;;;;;;5030619;28;20049;-63
2021/01/05 01:04:41;;;;;;;32.72;13.05;;;6.70;99.90;;;;;;5031091;28;20053;-63
2021/01/05 01:07:08;;;;;;;33.67;13.85;;;6.70;99.90;;;;;;5011778;28;20057;-63
2021/01/05 01:09:35;;;;;;;34.30;13.93;;;6.70;99.90;;;;;;5022811;28;20045;-63
2021/01/05 01:12:19;;;;;;;33.47;13.02;;;6.70;99.90;;;;;;5012952;28;20080;-63
2021/01/05 01:14:50;;;;;;;32.95;12.55;;;6.70;99.90;;;;;;5027445;28;20566;-63
2021/01/05 01:17:21;;;;;;;32.63;12.88;;;6.60;99.90;;;;;;5029447;28;20514;-63
2021/01/05 01:19:50;;;;;;;38.78;14.07;;;6.70;99.90;;;;;;5029084;28;20061;-64
2021/01/05 01:22:19;;;;;;;30.38;12.93;;;6.60;99.90;;;;;;5029897;28;20029;-64
2021/01/05 01:24:47;;;;;;;34.33;12.88;;;6.60;99.90;;;;;;5026093;28;20034;-64
2021/01/05 01:27:26;;;;;;;31.30;11.68;;;6.60;99.90;;;;;;5025165;28;20044;-64
2021/01/05 01:29:53;;;;;;;29.70;11.27;;;6.60;99.90;;;;;;5030198;28;20116;-64
2021/01/05 01:32:20;;;;;;;32.08;12.98;;;6.60;99.90;;;;;;5030387;28;20817;-64
2021/01/05 01:34:47;;;;;;;31.30;11.95;;;6.60;99.90;;;;;;5030923;28;20042;-64
2021/01/05 01:37:18;;;;;;;29.52;12.23;;;6.60;99.90;;;;;;5029933;28;20060;-64
2021/01/05 01:39:49;;;;;;;30.73;11.27;;;6.60;99.90;;;;;;5036729;28;20111;-64
2021/01/05 01:42:24;;;;;;;29.35;11.20;;;6.50;99.90;;;;;;5029907;28;20046;-64
2021/01/05 01:44:51;;;;;;;27.65;10.63;;;6.50;99.90;;;;;;5029511;28;20768;-64
2021/01/05 01:47:25;;;;;;;25.33;10.10;;;6.50;99.90;;;;;;5028848;28;20064;-64
2021/01/05 01:49:57;;;;;;;26.20;10.15;;;6.50;99.90;;;;;;5023384;28;20048;-64
2021/01/05 01:52:56;;;;;;;26.67;10.60;;;6.50;99.90;;;;;;5029519;28;20045;-64
2021/01/05 01:55:49;;;;;;;24.17;9.85;;;6.50;99.90;;;;;;5030246;28;20416;-64
2021/01/05 01:58:34;;;;;;;24.58;10.13;;;6.50;99.90;;;;;;5031078;28;20051;-64
2021/01/05 02:01:07;;;;;;;23.55;9.63;;;6.50;99.90;;;;;;5033478;28;20057;-64
2021/01/05 02:03:44;;;;;;;;;;;6.50;99.90;;;;;;5030299;28;20132;-64
2021/01/05 02:06:25;;;;;;;24.35;9.55;;;6.40;99.90;;;;;;5023569;28;19921;-64
2021/01/05 02:09:11;;;;;;;21.60;9.65;;;6.40;99.90;;;;;;5025884;28;20153;-64
2021/01/05 02:12:14;;;;;;;23.40;9.00;;;6.40;99.90;;;;;;5028063;28;20049;-64
2021/01/05 02:15:12;;;;;;;23.48;9.05;;;6.30;99.90;;;;;;5025898;28;20050;-63
2021/01/05 02:18:23;;;;;;;20.92;7.78;;;6.30;99.90;;;;;;5027233;28;20056;-63
2021/01/05 02:21:03;;;;;;;19.67;8.15;;;6.20;99.90;;;;;;5027661;28;20164;-63
2021/01/05 02:24:06;;;;;;;20.00;7.88;;;6.20;99.90;;;;;;5030590;28;20053;-63
2021/01/05 02:26:50;;;;;;;19.35;7.28;;;6.20;99.90;;;;;;5031466;28;20048;-64
2021/01/05 02:29:24;;;;;;;23.92;7.75;;;6.10;99.90;;;;;;5013570;28;20041;-64
2021/01/05 02:32:06;;;;;;;17.02;7.10;;;6.10;99.90;;;;;;5031145;28;20064;-64
2021/01/05 02:34:57;;;;;;;20.60;7.50;;;6.00;99.90;;;;;;5013717;28;20060;-63
2021/01/05 02:38:03;;;;;;;19.40;7.57;;;6.10;99.90;;;;;;5045449;28;20561;-63
2021/01/05 02:41:18;;;;;;;19.33;6.90;;;6.00;99.90;;;;;;5046319;28;20079;-63
2021/01/05 02:44:13;;;;;;;21.83;7.72;;;6.00;99.90;;;;;;5047559;28;20625;-63
2021/01/05 02:47:29;;;;;;;19.23;6.88;;;5.90;99.90;;;;;;5048530;28;20059;-63
2021/01/05 02:50:51;;;;;;;20.27;7.18;;;5.90;99.90;;;;;;5043913;28;20110;-63
2021/01/05 02:53:45;;;;;;;17.05;6.75;;;5.90;99.90;;;;;;5046416;28;20064;-63
2021/01/05 02:56:55;;;;;;;17.38;7.35;;;5.90;99.90;;;;;;5029994;28;20103;-63
2021/01/05 03:00:19;;;;;;;21.58;7.78;;;5.90;99.90;;;;;;5030129;28;20110;-64
2021/01/05 03:03:38;;;;;;;15.63;6.22;;;5.90;99.90;;;;;;5028730;28;20594;-64
2021/01/05 03:06:37;;;;;;;15.90;6.22;;;5.90;99.90;;;;;;5015709;28;20404;-64
2021/01/05 03:09:40;;;;;;;16.73;6.63;;;5.90;99.90;;;;;;5022762;28;20131;-64
2021/01/05 03:12:34;;;;;;;19.92;7.03;;;5.90;99.90;;;;;;5013115;28;20172;-64
2021/01/05 03:15:28;;;;;;;16.73;6.63;;;5.90;99.90;;;;;;5008713;28;20195;-64
2021/01/05 03:18:43;;;;;;;18.55;6.45;;;5.90;99.90;;;;;;5027159;28;20057;-64
2021/01/05 03:21:33;;;;;;;16.65;7.20;;;5.90;99.90;;;;;;5026328;28;20443;-64
2021/01/05 03:24:19;;;;;;;16.88;5.95;;;5.90;99.90;;;;;;5017731;28;20551;-64
2021/01/05 03:27:08;;;;;;;20.25;7.05;;;5.90;99.90;;;;;;4979689;28;20531;-64
2021/01/05 03:30:07;;;;;;;16.48;6.28;;;5.90;99.90;;;;;;4987663;28;20140;-64
2021/01/05 03:32:52;;;;;;;15.95;5.97;;;5.90;99.90;;;;;;4973857;28;20057;-64
2021/01/05 03:35:37;;;;;;;13.40;5.43;;;6.00;99.90;;;;;;4986824;28;20062;-64
2021/01/05 03:38:22;;;;;;;15.85;7.15;;;6.00;99.90;;;;;;4987951;28;20057;-64
2021/01/05 03:41:07;;;;;;;16.98;6.90;;;6.00;99.90;;;;;;5006631;28;20104;-64
2021/01/05 03:43:52;;;;;;;14.50;5.93;;;5.90;99.90;;;;;;5007209;28;20069;-64
2021/01/05 03:46:38;;;;;;;15.35;5.97;;;6.00;99.90;;;;;;5007425;28;20500;-64
2021/01/05 03:49:22;;;;;;;16.95;6.03;;;6.00;99.90;;;;;;5005946;28;20493;-64
2021/01/05 03:52:08;;;;;;;15.88;6.47;;;6.00;99.90;;;;;;5008679;28;20385;-64
2021/01/05 03:54:53;;;;;;;14.95;5.93;;;6.00;99.90;;;;;;5008151;28;20177;-64
2021/01/05 03:57:38;;;;;;;15.35;5.35;;;6.00;99.90;;;;;;4992893;28;20060;-64
2021/01/05 04:00:27;;;;;;;17.00;6.70;;;6.00;99.90;;;;;;5004086;28;20053;-64
2021/01/05 04:02:58;;;;;;;18.00;5.90;;;5.90;99.90;;;;;;4974305;28;20581;-64
2021/01/05 04:05:27;;;;;;;18.40;6.72;;;5.90;99.90;;;;;;5026923;28;20104;-64
2021/01/05 04:07:54;;;;;;;19.95;7.10;;;5.90;99.90;;;;;;5019587;28;20045;-64
2021/01/05 04:10:21;;;;;;;21.13;8.35;;;5.80;99.90;;;;;;5028921;28;20041;-63
2021/01/05 04:12:49;;;;;;;19.45;7.53;;;5.90;99.90;;;;;;5026058;28;20570;-63
2021/01/05 04:15:22;;;;;;;25.33;8.82;;;5.80;99.90;;;;;;5024379;28;20495;-63
2021/01/05 04:17:50;;;;;;;26.98;9.93;;;5.80;99.90;;;;;;5027313;28;20554;-66
2021/01/05 04:20:18;;;;;;;26.45;10.27;;;5.80;99.90;;;;;;5027682;28;20046;-66
2021/01/05 04:22:44;;;;;;;27.80;11.30;;;5.70;99.90;;;;;;5031123;28;20722;-66
2021/01/05 04:25:14;;;;;;;29.55;13.20;;;5.70;99.90;;;;;;5015869;28;20059;-66
2021/01/05 04:27:41;;;;;;;40.05;15.95;;;5.70;99.90;;;;;;5033841;28;20045;-66
2021/01/05 04:30:19;;;;;;;28.50;11.32;;;5.60;99.90;;;;;;5033057;28;20037;-66
2021/01/05 04:32:46;;;;;;;75.32;26.33;;;5.60;99.90;;;;;;5031919;28;20046;-65
2021/01/05 04:35:13;;;;;;;77.10;24.40;;;5.60;99.90;;;;;;5029742;28;20042;-65
2021/01/05 04:37:40;;;;;;;65.85;21.92;;;5.60;99.90;;;;;;5031180;28;20051;-65
2021/01/05 04:40:07;;;;;;;45.17;16.00;;;5.50;99.90;;;;;;5033285;28;20099;-65
2021/01/05 04:42:43;;;;;;;68.78;25.88;;;5.50;99.90;;;;;;5025162;28;20436;-65
2021/01/05 04:45:17;;;;;;;157.27;50.20;;;5.50;99.90;;;;;;5033236;28;20049;-65
2021/01/05 04:48:08;;;;;;;109.10;39.65;;;5.40;99.90;;;;;;5034944;28;20046;-65
2021/01/05 04:50:43;;;;;;;68.45;26.08;;;5.40;99.90;;;;;;5020980;28;20045;-65
2021/01/05 04:53:22;;;;;;;66.82;23.52;;;5.40;99.90;;;;;;5032608;28;20052;-65
2021/01/05 04:56:04;;;;;;;55.72;21.50;;;5.40;99.90;;;;;;5032348;28;20052;-66
2021/01/05 04:58:33;;;;;;;47.40;20.27;;;5.30;99.90;;;;;;5034262;28;20033;-66
2021/01/05 05:01:06;;;;;;;32.83;13.88;;;5.30;99.90;;;;;;5015396;28;20377;-66
2021/01/05 05:03:59;;;;;;;37.85;13.93;;;5.20;99.90;;;;;;5028033;28;20045;-66
2021/01/05 05:07:04;;;;;;;40.22;14.35;;;5.20;99.90;;;;;;5029254;28;20029;-66
2021/01/05 05:09:58;;;;;;;37.72;12.25;;;5.20;99.90;;;;;;5021951;28;20061;-66
2021/01/05 05:12:53;;;;;;;36.58;11.73;;;5.10;99.90;;;;;;5028978;28;20061;-66
2021/01/05 05:15:36;;;;;;;38.42;13.25;;;5.10;99.90;;;;;;5026630;28;20053;-66
2021/01/05 05:18:05;;;;;;;39.05;13.48;;;5.10;99.90;;;;;;5013402;28;20496;-66
2021/01/05 05:20:53;;;;;;;34.80;12.40;;;5.00;99.90;;;;;;5031733;28;20053;-66
2021/01/05 05:23:30;;;;;;;39.20;12.90;;;5.00;99.90;;;;;;5026495;28;20053;-66
2021/01/05 05:26:16;;;;;;;31.88;11.32;;;5.00;99.90;;;;;;5030428;28;20045;-66
2021/01/05 05:29:23;;;;;;;32.55;13.07;;;4.90;99.90;;;;;;5025155;28;20045;-65
2021/01/05 05:31:51;;;;;;;38.17;11.48;;;4.90;99.90;;;;;;5025457;28;20052;-65
2021/01/05 05:34:22;;;;;;;41.25;13.25;;;4.80;99.90;;;;;;5032142;28;20146;-65
2021/01/05 05:37:06;;;;;;;42.38;14.00;;;4.80;99.90;;;;;;5026003;28;20045;-65
2021/01/05 05:40:19;;;;;;;37.70;14.10;;;4.80;99.90;;;;;;5046951;28;20057;-66
2021/01/05 05:43:13;;;;;;;45.73;12.70;;;4.80;99.90;;;;;;5014569;28;20063;-65
2021/01/05 05:45:49;;;;;;;39.47;14.25;;;4.80;99.90;;;;;;5044199;28;20435;-65
2021/01/05 05:48:46;;;;;;;36.00;12.57;;;4.80;99.90;;;;;;5014558;28;20047;-65
2021/01/05 05:51:27;;;;;;;44.65;11.75;;;4.80;99.90;;;;;;5045337;28;20045;-65
2021/01/05 05:54:04;;;;;;;37.95;12.60;;;4.80;99.90;;;;;;5025361;28;20049;-65
2021/01/05 05:57:04;;;;;;;41.70;13.10;;;4.80;99.90;;;;;;5028436;28;20053;-65
2021/01/05 05:59:54;;;;;;;35.83;12.13;;;4.70;99.90;;;;;;5045108;28;20075;-65
2021/01/05 06:02:23;;;;;;;39.13;11.93;;;4.70;99.90;;;;;;5027162;28;20089;-66
2021/01/05 06:04:56;;;;;;;47.45;13.38;;;4.70;99.90;;;;;;5046509;28;20048;-65
2021/01/05 06:07:23;;;;;;;42.25;14.07;;;4.70;99.90;;;;;;5041460;28;20033;-66
2021/01/05 06:09:50;;;;;;;44.33;14.10;;;4.70;99.90;;;;;;5027307;28;20045;-66
2021/01/05 06:12:16;;;;;;;42.78;13.27;;;4.70;99.90;;;;;;5020902;28;20049;-66
2021/01/05 06:14:43;;;;;;;46.28;14.40;;;4.70;99.90;;;;;;5012803;28;20095;-66
2021/01/05 06:17:09;;;;;;;42.92;14.52;;;4.70;99.90;;;;;;5029643;28;20501;-65
2021/01/05 06:19:36;;;;;;;45.42;13.00;;;4.70;99.90;;;;;;5021739;28;20061;-65
2021/01/05 06:22:02;;;;;;;41.13;13.55;;;4.70;99.90;;;;;;5026687;28;20041;-66
2021/01/05 06:24:30;;;;;;;41.30;12.65;;;4.60;99.90;;;;;;5022856;28;20121;-66
2021/01/05 06:26:57;;;;;;;43.03;12.95;;;4.60;99.90;;;;;;5024987;28;20045;-66
2021/01/05 06:29:24;;;;;;;41.28;11.65;;;4.60;99.90;;;;;;5022618;28;20038;-66
2021/01/05 06:31:50;;;;;;;40.22;12.18;;;4.50;99.90;;;;;;5025920;28;20536;-66
2021/01/05 06:34:17;;;;;;;48.67;14.45;;;4.60;99.90;;;;;;5023599;28;20033;-66
2021/01/05 06:36:43;;;;;;;41.85;13.35;;;4.50;99.90;;;;;;5026125;28;20401;-65
2021/01/05 06:39:10;;;;;;;44.72;13.13;;;4.50;99.90;;;;;;5025269;28;20898;-66
2021/01/05 06:41:36;;;;;;;44.22;13.13;;;4.60;99.90;;;;;;5023214;28;20045;-65
2021/01/05 06:44:03;;;;;;;40.90;12.85;;;4.60;99.90;;;;;;5023856;28;20068;-66
2021/01/05 06:46:31;;;;;;;45.60;15.15;;;4.60;99.90;;;;;;5027142;28;20037;-65
2021/01/05 06:48:58;;;;;;;47.50;14.50;;;4.60;99.90;;;;;;5028163;28;20045;-65
2021/01/05 06:51:24;;;;;;;45.67;13.45;;;4.60;99.90;;;;;;5031516;28;20065;-65
2021/01/05 06:53:51;;;;;;;43.05;12.63;;;4.60;99.90;;;;;;5028281;28;20056;-65
2021/01/05 06:56:17;;;;;;;44.00;12.90;;;4.60;99.90;;;;;;5025189;28;20057;-65
2021/01/05 06:58:49;;;;;;;41.95;13.55;;;4.60;99.90;;;;;;5026084;28;20044;-65
2021/01/05 07:01:15;;;;;;;42.35;13.13;;;4.70;99.90;;;;;;5028946;28;20048;-65
2021/01/05 07:03:42;;;;;;;39.00;11.68;;;4.70;99.90;;;;;;5024835;28;20052;-65
2021/01/05 07:06:08;;;;;;;42.35;12.80;;;4.70;99.90;;;;;;5027792;28;20091;-65
2021/01/05 07:08:35;;;;;;;38.45;11.88;;;4.70;99.90;;;;;;5025619;28;20048;-65
2021/01/05 07:11:01;;;;;;;40.67;11.57;;;4.70;99.90;;;;;;5002644;28;20037;-64
2021/01/05 07:13:28;;;;;;;36.92;11.32;;;4.70;99.90;;;;;;5024200;28;20044;-65
2021/01/05 07:15:54;;;;;;;38.58;13.13;;;4.70;99.90;;;;;;5023158;28;20459;-66
2021/01/05 07:18:21;;;;;;;43.42;13.23;;;4.70;99.90;;;;;;5021398;28;20076;-67
2021/01/05 07:20:50;;;;;;;35.70;11.00;;;4.70;99.90;;;;;;5025296;28;20045;-70
2021/01/05 07:23:17;;;;;;;36.08;12.02;;;4.80;99.90;;;;;;5005534;28;20095;-67
2021/01/05 07:25:43;;;;;;;30.38;10.23;;;4.80;99.90;;;;;;5039875;28;20044;-67
2021/01/05 07:28:12;;;;;;;35.10;10.88;;;4.80;99.90;;;;;;5025330;28;20123;-71
2021/01/05 07:30:38;;;;;;;33.05;10.32;;;4.70;99.90;;;;;;5025532;28;20056;-69
2021/01/05 07:33:05;;;;;;;31.77;10.82;;;4.80;99.90;;;;;;5010355;28;20738;-69
2021/01/05 07:35:31;;;;;;;37.72;11.02;;;4.80;99.90;;;;;;5027785;28;20053;-70
2021/01/05 07:37:58;;;;;;;37.70;11.18;;;4.80;99.90;;;;;;5024718;28;20049;-69
2021/01/05 07:40:24;;;;;;;35.42;10.55;;;4.70;99.90;;;;;;5022264;28;20041;-67
2021/01/05 07:42:51;;;;;;;31.92;10.32;;;4.70;99.90;;;;;;5023671;28;20069;-67
2021/01/05 07:45:20;;;;;;;35.55;11.45;;;4.70;99.90;;;;;;5024553;28;20052;-66
2021/01/05 07:47:49;;;;;;;40.92;11.60;;;4.70;99.90;;;;;;5024637;28;20516;-65
2021/01/05 07:50:20;;;;;;;32.25;10.15;;;4.70;99.90;;;;;;5019458;28;20412;-65
2021/01/05 07:52:47;;;;;;;30.75;10.93;;;4.80;99.90;;;;;;5020869;28;20053;-65
2021/01/05 07:55:25;;;;;;;36.00;11.63;;;4.90;99.90;;;;;;5026824;28;20052;-65
2021/01/05 07:57:53;;;;;;;32.58;10.93;;;4.90;99.90;;;;;;5031283;28;20041;-65
2021/01/05 08:00:23;;;;;;;30.08;9.73;;;4.90;99.90;;;;;;5019775;28;20045;-67
2021/01/05 08:02:53;;;;;;;36.10;12.10;;;4.90;99.90;;;;;;5026456;28;20048;-67
2021/01/05 08:05:23;;;;;;;40.67;12.40;;;4.80;99.90;;;;;;5026805;28;20053;-66
2021/01/05 08:07:50;;;;;;;31.85;10.45;;;4.80;99.90;;;;;;5024069;28;20049;-66
2021/01/05 08:10:19;;;;;;;33.30;11.55;;;4.80;99.90;;;;;;5029644;28;20443;-65
2021/01/05 08:12:47;;;;;;;31.90;9.50;;;4.80;99.90;;;;;;5020363;28;20045;-64
2021/01/05 08:15:22;;;;;;;35.58;10.50;;;4.70;99.90;;;;;;5026655;28;20052;-64
2021/01/05 08:17:49;;;;;;;32.80;10.30;;;4.90;99.90;;;;;;5027513;28;20053;-66
2021/01/05 08:20:18;;;;;;;38.35;11.75;;;4.90;99.90;;;;;;5026721;28;20060;-68
2021/01/05 08:22:45;;;;;;;40.10;12.38;;;5.00;99.90;;;;;;5029002;28;20507;-68
2021/01/05 08:25:14;;;;;;;39.97;11.73;;;5.00;99.90;;;;;;5031414;28;20100;-67
2021/01/05 08:27:41;;;;;;;45.78;13.60;;;5.10;99.90;;;;;;5028837;28;20116;-67
2021/01/05 08:30:13;;;;;;;39.90;12.68;;;5.20;99.90;;;;;;5029440;28;20037;-68
2021/01/05 08:32:39;;;;;;;46.23;14.73;;;5.30;99.90;;;;;;5029807;28;20056;-68
2021/01/05 08:35:07;;;;;;;42.67;13.00;;;5.30;99.90;;;;;;5027244;28;20046;-68
2021/01/05 08:37:38;;;;;;;41.65;13.90;;;5.40;99.90;;;;;;5032202;28;20080;-68
2021/01/05 08:40:09;;;;;;;35.47;12.02;;;5.40;99.90;;;;;;5013467;28;20128;-67
2021/01/05 08:42:36;;;;;;;41.38;12.93;;;5.50;99.90;;;;;;5012658;28;20052;-67
2021/01/05 08:45:05;;;;;;;39.50;11.77;;;5.60;99.90;;;;;;5027533;28;20125;-68
2021/01/05 08:47:32;;;;;;;44.17;13.25;;;5.70;99.90;;;;;;5037738;28;20049;-67
2021/01/05 08:49:59;;;;;;;39.38;13.63;;;5.70;99.90;;;;;;5020672;28;20045;-67
2021/01/05 08:52:25;;;;;;;43.35;13.70;;;5.70;99.90;;;;;;5017323;28;20042;-68
2021/01/05 08:54:52;;;;;;;38.40;12.55;;;5.70;99.90;;;;;;5019888;28;20045;-67
2021/01/05 08:57:19;;;;;;;36.83;11.43;;;5.70;99.90;;;;;;5030023;28;20041;-68
2021/01/05 08:59:46;;;;;;;38.88;11.55;;;5.70;99.90;;;;;;5026213;28;20060;-68
2021/01/05 09:02:13;;;;;;;41.50;12.20;;;5.70;99.90;;;;;;5021883;28;20041;-67
2021/01/05 09:04:40;;;;;;;33.83;10.77;;;5.70;99.90;;;;;;5021683;28;20045;-68
2021/01/05 09:07:08;;;;;;;33.80;11.45;;;5.70;99.90;;;;;;5025220;28;20480;-66
2021/01/05 09:09:35;;;;;;;37.13;11.10;;;5.70;99.90;;;;;;5030246;28;20042;-67
2021/01/05 09:12:02;;;;;;;32.30;11.18;;;5.70;99.90;;;;;;5023661;28;20049;-67
2021/01/05 09:14:28;;;;;;;36.38;11.13;;;5.60;99.90;;;;;;5025966;28;20494;-68
2021/01/05 09:16:59;;;;;;;30.70;10.02;;;5.70;99.90;;;;;;5031517;28;20064;-67
2021/01/05 09:19:27;;;;;;;33.17;11.23;;;5.70;99.90;;;;;;5026999;28;20115;-67
2021/01/05 09:21:54;;;;;;;39.67;11.90;;;5.70;99.90;;;;;;5024324;28;20045;-68
2021/01/05 09:24:21;;;;;;;37.88;11.10;;;5.70;99.90;;;;;;5028682;28;20527;-67
2021/01/05 09:26:55;;;;;;;34.47;9.95;;;5.80;99.90;;;;;;5027379;28;20476;-67
2021/01/05 09:29:24;;;;;;;29.50;9.15;;;5.70;99.90;;;;;;5002737;28;20136;-66
2021/01/05 09:31:53;;;;;;;35.30;10.23;;;5.70;99.90;;;;;;5033270;28;20038;-67
2021/01/05 09:34:22;;;;;;;40.70;10.48;;;5.80;99.90;;;;;;4985274;28;20056;-66
2021/01/05 09:36:51;;;;;;;34.10;10.10;;;5.80;99.90;;;;;;5021769;28;20041;-66
2021/01/05 09:39:21;;;;;;;26.08;10.27;;;5.90;99.90;;;;;;5018982;28;20052;-67
2021/01/05 09:41:58;;;;;;;29.17;8.80;;;6.00;99.90;;;;;;5025525;28;20563;-66
2021/01/05 09:44:25;;;;;;;30.60;10.55;;;6.10;99.90;;;;;;5034967;28;20046;-65
2021/01/05 09:46:52;;;;;;;28.70;8.90;;;6.10;99.90;;;;;;5022951;28;20911;-65
2021/01/05 09:49:19;;;;;;;26.95;9.68;;;6.10;99.90;;;;;;5014975;28;20045;-66
2021/01/05 09:51:46;;;;;;;27.88;9.40;;;6.10;99.90;;;;;;4998755;28;20057;-66
2021/01/05 09:54:15;;;;;;;28.38;10.48;;;6.10;99.90;;;;;;5025941;28;20056;-66
2021/01/05 09:56:50;;;;;;;33.30;11.65;;;6.20;99.90;;;;;;5012660;28;20045;-66
2021/01/05 09:59:17;;;;;;;30.63;9.68;;;6.10;99.90;;;;;;5023609;28;20044;-66
2021/01/05 10:01:44;;;;;;;28.75;10.25;;;6.20;99.90;;;;;;5022288;28;20041;-65
2021/01/05 10:04:10;;;;;;;26.77;8.95;;;6.30;99.90;;;;;;5006347;28;20052;-65
2021/01/05 10:06:37;;;;;;;23.90;8.27;;;6.40;99.90;;;;;;5016646;28;20053;-66
2021/01/05 10:09:08;;;;;;;26.65;8.60;;;6.30;99.90;;;;;;5021752;28;20402;-65
2021/01/05 10:11:42;;;;;;;25.23;9.00;;;6.20;99.90;;;;;;5018634;28;20069;-67
2021/01/05 10:14:11;;;;;;;26.55;8.63;;;6.00;99.90;;;;;;5026789;28;20076;-66
2021/01/05 10:16:38;;;;;;;26.80;10.20;;;6.00;99.90;;;;;;5023285;28;20049;-65
2021/01/05 10:19:05;;;;;;;22.98;7.68;;;6.00;99.90;;;;;;5014697;28;20517;-67
2021/01/05 10:21:37;;;;;;;26.13;9.77;;;6.20;99.90;;;;;;5020312;28;20053;-68
2021/01/05 10:24:06;;;;;;;24.87;8.73;;;6.00;99.90;;;;;;5021688;28;20065;-67
2021/01/05 10:26:33;;;;;;;22.48;7.30;;;6.10;99.90;;;;;;5018522;28;20295;-67
2021/01/05 10:29:00;;;;;;;29.08;11.57;;;6.10;99.90;;;;;;5020145;28;20508;-67
2021/01/05 10:31:37;;;;;;;23.33;8.55;;;6.20;99.90;;;;;;5023224;28;20061;-66
2021/01/05 10:34:04;;;;;;;30.05;8.85;;;6.30;99.90;;;;;;5020028;28;20053;-67
2021/01/05 10:36:30;;;;;;;252.77;66.47;;;6.20;99.90;;;;;;5026592;28;20054;-66
2021/01/05 10:39:12;;;;;;;158.90;42.70;;;6.20;99.90;;;;;;5023657;28;20053;-67
2021/01/05 10:41:44;;;;;;;147.35;40.42;;;6.20;99.90;;;;;;5020629;28;20064;-67
2021/01/05 10:44:12;;;;;;;90.13;26.42;;;6.30;99.90;;;;;;5021290;28;20060;-67
2021/01/05 10:46:39;;;;;;;62.65;22.65;;;6.40;99.90;;;;;;5011784;28;20153;-67
2021/01/05 10:49:06;;;;;;;53.03;19.02;;;6.30;99.90;;;;;;5018116;28;20060;-66
2021/01/05 10:51:36;;;;;;;24.33;9.43;;;6.20;99.90;;;;;;5018882;28;20092;-66
2021/01/05 10:54:02;;;;;;;27.17;9.88;;;6.10;99.90;;;;;;5020441;28;20050;-65
2021/01/05 10:56:29;;;;;;;33.63;13.23;;;6.00;99.90;;;;;;5016725;28;20046;-67
2021/01/05 10:58:55;;;;;;;29.23;12.85;;;5.90;99.90;;;;;;5022429;28;20041;-69
2021/01/05 11:01:22;;;;;;;27.38;11.70;;;6.00;99.90;;;;;;5022819;28;20084;-67
2021/01/05 11:03:48;;;;;;;26.60;8.20;;;6.00;99.90;;;;;;5018690;28;20429;-66
2021/01/05 11:06:15;;;;;;;23.13;8.07;;;6.00;99.90;;;;;;5018057;28;20056;-66
2021/01/05 11:08:41;;;;;;;22.00;8.25;;;6.20;99.90;;;;;;5018552;28;20041;-67
2021/01/05 11:11:16;;;;;;;25.08;9.48;;;6.30;99.90;;;;;;5021537;28;20057;-67
2021/01/05 11:13:42;;;;;;;27.98;9.68;;;6.30;99.90;;;;;;5020502;28;20045;-65
2021/01/05 11:16:09;;;;;;;24.85;9.27;;;6.30;99.90;;;;;;5017938;28;20853;-66
2021/01/05 11:18:35;;;;;;;28.83;10.27;;;6.30;99.90;;;;;;5013464;28;20449;-66
2021/01/05 11:21:02;;;;;;;23.05;8.82;;;6.30;99.90;;;;;;5017440;28;20045;-66
2021/01/05 11:23:29;;;;;;;23.50;7.88;;;6.40;99.90;;;;;;5033173;28;20045;-66
2021/01/05 11:25:56;;;;;;;21.65;7.80;;;6.20;99.90;;;;;;5020557;28;20045;-66
2021/01/05 11:28:22;;;;;;;22.13;7.80;;;6.20;99.90;;;;;;5019828;28;20042;-66
2021/01/05 11:30:49;;;;;;;27.70;9.15;;;6.20;99.90;;;;;;5023530;28;20080;-65
2021/01/05 11:33:15;;;;;;;22.75;8.65;;;6.10;99.90;;;;;;5021873;28;20041;-65
2021/01/05 11:35:43;;;;;;;24.90;9.15;;;6.10;99.90;;;;;;5019834;28;20496;-66
2021/01/05 11:38:10;;;;;;;24.13;8.02;;;6.00;99.90;;;;;;5016980;28;20041;-66
2021/01/05 11:40:37;;;;;;;20.38;6.90;;;6.00;99.90;;;;;;5023149;28;20049;-65
2021/01/05 11:43:04;;;;;;;21.35;8.27;;;6.00;99.90;;;;;;5023053;28;20505;-65
2021/01/05 11:45:31;;;;;;;19.95;8.20;;;6.10;99.90;;;;;;5020310;28;20088;-65
2021/01/05 11:47:57;;;;;;;18.90;6.82;;;6.00;99.90;;;;;;5025358;28;20045;-66
2021/01/05 11:50:24;;;;;;;21.95;8.73;;;5.90;99.90;;;;;;5027329;28;20042;-66
2021/01/05 11:52:50;;;;;;;26.13;8.85;;;6.00;99.90;;;;;;5017719;28;20050;-65
2021/01/05 11:55:19;;;;;;;22.05;8.02;;;6.10;99.90;;;;;;5019175;28;20128;-65
2021/01/05 11:57:45;;;;;;;25.05;9.02;;;6.20;99.90;;;;;;5012001;28;20850;-63
2021/01/05 12:00:17;;;;;;;24.38;8.52;;;6.30;99.90;;;;;;5021620;28;20049;-65
2021/01/05 12:02:44;;;;;;;25.50;8.88;;;6.30;99.90;;;;;;5002026;28;20049;-66
2021/01/05 12:05:13;;;;;;;24.83;9.60;;;6.20;99.90;;;;;;4999510;28;20100;-68
2021/01/05 12:07:39;;;;;;;29.42;10.18;;;6.20;99.90;;;;;;5020447;28;20049;-67
2021/01/05 12:10:07;;;;;;;23.13;8.90;;;6.30;99.90;;;;;;4998457;28;20100;-67
2021/01/05 12:12:34;;;;;;;22.23;8.55;;;6.20;99.90;;;;;;5019929;28;20061;-66
2021/01/05 12:15:01;;;;;;;24.17;8.40;;;6.20;99.90;;;;;;5017651;28;20865;-67
2021/01/05 12:17:28;;;;;;;20.73;8.70;;;6.20;99.90;;;;;;5015443;28;20046;-67
2021/01/05 12:19:55;;;;;;;23.38;8.82;;;6.20;99.90;;;;;;5017748;28;20068;-67
2021/01/05 12:22:21;;;;;;;20.67;7.53;;;6.30;99.90;;;;;;5017753;28;20049;-65
2021/01/05 12:24:48;;;;;;;25.00;8.13;;;6.30;99.90;;;;;;5019606;28;20254;-65
2021/01/05 12:27:15;;;;;;;23.95;8.25;;;6.40;99.90;;;;;;5022274;28;20448;-67
2021/01/05 12:29:44;;;;;;;19.67;7.63;;;6.30;99.90;;;;;;5003877;28;20108;-66
2021/01/05 12:32:16;;;;;;;21.05;7.38;;;6.40;99.90;;;;;;5002413;28;20050;-63
2021/01/05 12:34:50;;;;;;;19.08;7.35;;;6.40;99.90;;;;;;5020231;28;20038;-66
2021/01/05 12:37:20;;;;;;;14.80;5.50;;;6.40;99.90;;;;;;5017007;28;20086;-65
2021/01/05 12:39:47;;;;;;;13.52;5.20;;;6.30;99.90;;;;;;5022200;28;20052;-65
2021/01/05 12:42:22;;;;;;;13.10;5.40;;;6.30;99.90;;;;;;5021759;28;20136;-65
2021/01/05 12:44:51;;;;;;;13.50;4.82;;;6.20;99.90;;;;;;5017867;28;20045;-65
2021/01/05 12:47:20;;;;;;;14.52;5.45;;;6.20;99.90;;;;;;5024441;28;20121;-65
2021/01/05 12:49:47;;;;;;;14.65;6.00;;;6.00;99.90;;;;;;5038308;28;20052;-66
2021/01/05 12:52:14;;;;;;;17.40;5.93;;;6.00;99.90;;;;;;5017908;28;20046;-66
2021/01/05 12:54:42;;;;;;;14.63;5.57;;;6.00;99.90;;;;;;5014781;28;20057;-65
2021/01/05 12:57:11;;;;;;;12.55;5.07;;;6.10;99.90;;;;;;5023705;28;20064;-65
2021/01/05 12:59:38;;;;;;;11.35;3.92;;;6.10;99.90;;;;;;5025915;28;20045;-65
2021/01/05 13:02:16;;;;;;;16.45;5.68;;;6.10;99.90;;;;;;5018943;28;20103;-65
2021/01/05 13:04:43;;;;;;;15.27;5.30;;;6.20;99.90;;;;;;5022082;28;20045;-65
2021/01/05 13:07:09;;;;;;;16.60;5.88;;;6.30;99.90;;;;;;5022889;28;20492;-65
2021/01/05 13:09:36;;;;;;;15.57;4.85;;;6.30;99.90;;;;;;5023641;28;20053;-65
2021/01/05 13:12:03;;;;;;;15.77;5.20;;;6.30;99.90;;;;;;5024084;28;20037;-65